Time;durP1;ratioP1;P1;durP2;ratioP2;P2;SDS_P1;SDS_P2;PMS_P1;PMS_P2;Temp;Humidity;BMP_temperature;BMP_pressure;BME280_temperature;BME280_humidity;BME280_pressure;Samples;Min_cycle;Max_cycle;Signal;HPM_P1;HPM_P2
2022/03/24 00:01:48;;;;;;;53.33;42.50;;;6.30;99.90;;;;;;4998258;28;88586;-35
2022/03/24 00:04:14;;;;;;;48.28;40.72;;;6.30;99.90;;;;;;4998031;28;90415;-34
2022/03/24 00:06:40;;;;;;;49.15;41.72;;;6.30;99.90;;;;;;4997049;28;89686;-38
2022/03/24 00:09:06;;;;;;;53.72;45.05;;;6.40;99.90;;;;;;4998642;28;90192;-36
2022/03/24 00:11:31;;;;;;;55.55;42.15;;;6.40;99.90;;;;;;4997933;28;89418;-36
2022/03/24 00:13:57;;;;;;;56.70;45.13;;;6.50;99.90;;;;;;4997986;28;90089;-36
2022/03/24 00:16:23;;;;;;;51.40;40.42;;;6.50;99.90;;;;;;5035814;22;89709;-37
2022/03/24 00:18:50;;;;;;;57.85;45.15;;;6.50;99.90;;;;;;4999343;28;89489;-35
2022/03/24 00:21:16;;;;;;;60.53;44.55;;;6.50;99.90;;;;;;5017723;28;89538;-37
2022/03/24 00:23:42;;;;;;;56.05;43.90;;;6.40;99.90;;;;;;5017186;28;91362;-35
2022/03/24 00:26:07;;;;;;;54.70;43.38;;;6.40;99.90;;;;;;5017654;28;89912;-38
2022/03/24 00:28:33;;;;;;;50.40;41.95;;;6.40;99.90;;;;;;5017352;28;89922;-36
2022/03/24 00:30:59;;;;;;;59.75;44.85;;;6.40;99.90;;;;;;5017823;28;89014;-36
2022/03/24 00:33:25;;;;;;;63.28;46.95;;;6.50;99.90;;;;;;5017634;28;90114;-36
2022/03/24 00:35:51;;;;;;;61.50;46.42;;;6.50;99.90;;;;;;5017073;28;89852;-36
2022/03/24 00:38:17;;;;;;;57.28;44.38;;;6.60;99.90;;;;;;5017886;28;90500;-38
2022/03/24 00:40:43;;;;;;;62.05;45.70;;;6.60;99.90;;;;;;5019512;27;89164;-34
2022/03/24 00:43:09;;;;;;;60.30;47.00;;;6.60;99.90;;;;;;5020437;28;90301;-34
2022/03/24 00:45:35;;;;;;;61.42;47.25;;;6.60;99.90;;;;;;5020463;28;89442;-37
2022/03/24 00:48:00;;;;;;;57.22;45.83;;;6.60;99.90;;;;;;5021124;28;90333;-34
2022/03/24 00:50:26;;;;;;;58.83;43.67;;;6.40;99.90;;;;;;5020945;28;89357;-38
2022/03/24 00:52:52;;;;;;;64.28;48.40;;;6.40;99.90;;;;;;5021039;28;89914;-35
2022/03/24 00:55:19;;;;;;;61.03;45.70;;;6.40;99.90;;;;;;5020674;28;90097;-36
2022/03/24 00:57:51;;;;;;;61.97;47.07;;;6.30;99.90;;;;;;5002942;28;90488;-34
2022/03/24 01:00:20;;;;;;;63.92;46.20;;;6.20;99.90;;;;;;5020774;28;89899;-37
2022/03/24 01:02:52;;;;;;;62.65;47.13;;;6.30;99.90;;;;;;5020238;28;90262;-36
2022/03/24 01:05:23;;;;;;;60.08;45.50;;;6.30;99.90;;;;;;5019933;28;88681;-32
2022/03/24 01:07:49;;;;;;;66.20;48.22;;;6.20;99.90;;;;;;5020214;28;90267;-35
2022/03/24 01:10:17;;;;;;;60.72;46.47;;;6.20;99.90;;;;;;5020446;28;89172;-35
2022/03/24 01:12:44;;;;;;;61.92;46.90;;;6.20;99.90;;;;;;5020757;28;90333;-36
2022/03/24 01:15:11;;;;;;;59.97;48.58;;;6.20;99.90;;;;;;5020490;28;91119;-33
2022/03/24 01:17:37;;;;;;;57.42;47.38;;;6.20;99.90;;;;;;5019506;28;90510;-37
2022/03/24 01:20:04;;;;;;;60.42;46.95;;;6.00;99.90;;;;;;5021068;28;88988;-39
2022/03/24 01:22:30;;;;;;;64.75;50.47;;;5.90;99.90;;;;;;5020899;28;91052;-34
2022/03/24 01:24:59;;;;;;;60.38;47.33;;;5.80;99.90;;;;;;5020096;28;89687;-32
2022/03/24 01:27:26;;;;;;;63.67;47.10;;;5.80;99.90;;;;;;5020309;28;90177;-34
2022/03/24 01:29:54;;;;;;;67.82;51.65;;;5.70;99.90;;;;;;5020280;28;89152;-35
2022/03/24 01:32:20;;;;;;;65.25;47.35;;;5.60;99.90;;;;;;5020821;28;89590;-34
2022/03/24 01:34:46;;;;;;;59.33;46.42;;;5.50;99.90;;;;;;5019294;28;90097;-38
2022/03/24 01:37:12;;;;;;;57.92;43.83;;;5.50;99.90;;;;;;5019406;28;90184;-33
2022/03/24 01:39:38;;;;;;;57.15;44.58;;;5.40;99.90;;;;;;5019965;28;88924;-34
2022/03/24 01:42:05;;;;;;;53.50;43.60;;;5.40;99.90;;;;;;5020119;28;91004;-33
2022/03/24 01:44:34;;;;;;;65.00;47.05;;;5.30;99.90;;;;;;5020565;28;88753;-36
2022/03/24 01:47:02;;;;;;;61.53;46.00;;;5.30;99.90;;;;;;5020413;28;89830;-37
2022/03/24 01:49:31;;;;;;;61.10;46.42;;;5.20;99.90;;;;;;5020385;28;89946;-34
2022/03/24 01:51:57;;;;;;;57.13;46.50;;;5.10;99.90;;;;;;5020145;27;89746;-33
2022/03/24 01:54:24;;;;;;;68.45;50.38;;;5.10;99.90;;;;;;5019726;28;89735;-33
2022/03/24 01:56:51;;;;;;;64.32;47.08;;;5.10;99.90;;;;;;5019530;28;90132;-35
2022/03/24 01:59:19;;;;;;;63.67;49.90;;;5.00;99.90;;;;;;5019941;28;90128;-33
2022/03/24 02:01:46;;;;;;;57.38;44.78;;;4.90;99.90;;;;;;5020227;28;89977;-34
2022/03/24 02:04:14;;;;;;;64.55;48.42;;;4.90;99.90;;;;;;5018892;28;90282;-33
2022/03/24 02:06:40;;;;;;;56.67;44.37;;;4.80;99.90;;;;;;5019203;28;89735;-34
2022/03/24 02:09:06;;;;;;;64.60;47.90;;;4.80;99.90;;;;;;5020307;28;89456;-35
2022/03/24 02:11:32;;;;;;;59.28;48.92;;;4.80;99.90;;;;;;5019053;28;90355;-33
2022/03/24 02:13:58;;;;;;;61.58;48.00;;;4.80;99.90;;;;;;5018978;28;89552;-38
2022/03/24 02:16:27;;;;;;;67.45;50.45;;;4.70;99.90;;;;;;5019210;28;89460;-35
2022/03/24 02:18:59;;;;;;;72.65;53.35;;;4.70;99.90;;;;;;5019344;28;89639;-34
2022/03/24 02:21:27;;;;;;;66.97;50.80;;;4.70;99.90;;;;;;5019958;28;89084;-36
2022/03/24 02:23:53;;;;;;;;;;;4.70;99.90;;;;;;5001663;28;92654;-34
2022/03/24 02:26:18;;;;;;;63.85;50.13;;;4.70;99.90;;;;;;5021266;28;89987;-35
2022/03/24 02:28:45;;;;;;;65.30;50.35;;;4.70;99.90;;;;;;5019917;28;87944;-38
2022/03/24 02:31:14;;;;;;;72.60;52.03;;;4.60;99.90;;;;;;5019058;28;90386;-36
2022/03/24 02:33:40;;;;;;;70.93;53.60;;;4.60;99.90;;;;;;5018590;28;89704;-35
2022/03/24 02:36:07;;;;;;;71.97;50.75;;;4.60;99.90;;;;;;5019075;28;89925;-39
2022/03/24 02:38:33;;;;;;;67.28;51.17;;;4.50;99.90;;;;;;5019745;28;90320;-32
2022/03/24 02:40:59;;;;;;;63.20;50.38;;;4.60;99.90;;;;;;5019111;28;89541;-33
2022/03/24 02:43:24;;;;;;;66.45;50.45;;;4.60;99.90;;;;;;5020172;28;89778;-34
2022/03/24 02:45:53;;;;;;;64.13;51.60;;;4.60;99.90;;;;;;5018450;28;90900;-35
2022/03/24 02:48:20;;;;;;;67.40;51.90;;;4.60;99.90;;;;;;5018737;28;90154;-35
2022/03/24 02:50:46;;;;;;;66.03;47.65;;;4.60;99.90;;;;;;5018912;28;90257;-37
2022/03/24 02:53:12;;;;;;;72.53;53.72;;;4.60;99.90;;;;;;5019687;28;90344;-33
2022/03/24 02:55:37;;;;;;;64.78;51.92;;;4.60;99.90;;;;;;5018262;28;89832;-34
2022/03/24 02:58:03;;;;;;;75.60;51.83;;;4.60;99.90;;;;;;5019351;28;88836;-37
2022/03/24 03:00:28;;;;;;;68.68;50.15;;;4.60;99.90;;;;;;5018001;28;89919;-34
2022/03/24 03:02:54;;;;;;;63.83;50.25;;;4.50;99.90;;;;;;5017736;28;89835;-37
2022/03/24 03:05:21;;;;;;;68.22;47.90;;;4.50;99.90;;;;;;5018462;28;90675;-34
2022/03/24 03:07:47;;;;;;;65.03;50.45;;;4.40;99.90;;;;;;5018349;28;89122;-38
2022/03/24 03:10:14;;;;;;;63.42;50.70;;;4.40;99.90;;;;;;5018721;28;90190;-36
2022/03/24 03:12:44;;;;;;;69.60;53.22;;;4.30;99.90;;;;;;5018082;28;91402;-34
2022/03/24 03:15:10;;;;;;;67.38;54.10;;;4.30;99.90;;;;;;5018853;28;91847;-34
2022/03/24 03:17:37;;;;;;;64.05;51.53;;;4.20;99.90;;;;;;5017582;28;89880;-34
2022/03/24 03:20:06;;;;;;;59.45;49.50;;;4.10;99.90;;;;;;5018906;28;90341;-35
2022/03/24 03:22:32;;;;;;;61.08;48.35;;;4.20;99.90;;;;;;5019007;28;90956;-33
2022/03/24 03:24:59;;;;;;;72.07;54.05;;;4.10;99.90;;;;;;5000283;28;91022;-35
2022/03/24 03:27:26;;;;;;;71.68;51.50;;;4.10;99.90;;;;;;5018595;28;88277;-34
2022/03/24 03:29:52;;;;;;;71.25;53.33;;;4.10;99.90;;;;;;5018501;28;90079;-35
2022/03/24 03:32:19;;;;;;;69.63;52.92;;;4.10;99.90;;;;;;5018683;28;91471;-33
2022/03/24 03:34:45;;;;;;;65.07;49.60;;;4.00;99.90;;;;;;5017935;28;89654;-37
2022/03/24 03:37:12;;;;;;;78.95;55.22;;;3.90;99.90;;;;;;5018730;28;88987;-34
2022/03/24 03:39:37;;;;;;;65.68;52.47;;;4.00;99.90;;;;;;5018051;28;91797;-33
2022/03/24 03:42:04;;;;;;;65.82;55.08;;;4.00;99.90;;;;;;5017849;28;89683;-34
2022/03/24 03:44:30;;;;;;;69.97;52.90;;;3.90;99.90;;;;;;5018324;28;89666;-34
2022/03/24 03:46:56;;;;;;;66.28;51.72;;;3.90;99.90;;;;;;5018190;28;89803;-36
2022/03/24 03:49:22;;;;;;;75.07;57.13;;;3.90;99.90;;;;;;5018712;28;90110;-38
2022/03/24 03:51:48;;;;;;;72.20;54.63;;;3.90;99.90;;;;;;5017851;28;89762;-34
2022/03/24 03:54:15;;;;;;;69.57;55.20;;;3.80;99.90;;;;;;5017696;28;90183;-34
2022/03/24 03:56:41;;;;;;;77.50;55.30;;;3.70;99.90;;;;;;5018488;28;88496;-34
2022/03/24 03:59:07;;;;;;;71.45;55.03;;;3.70;99.90;;;;;;5018221;28;90087;-33
2022/03/24 04:01:33;;;;;;;80.78;56.53;;;3.60;99.90;;;;;;5017819;28;90725;-33
2022/03/24 04:04:00;;;;;;;72.72;55.80;;;3.60;99.90;;;;;;5018089;28;89461;-37
2022/03/24 04:06:26;;;;;;;78.50;59.25;;;3.50;99.90;;;;;;5018021;28;89098;-35
2022/03/24 04:08:51;;;;;;;71.07;54.72;;;3.40;99.90;;;;;;5017498;28;89399;-35
2022/03/24 04:11:17;;;;;;;76.43;58.40;;;3.40;99.90;;;;;;5018475;28;89671;-34
2022/03/24 04:13:43;;;;;;;75.03;59.47;;;3.40;99.90;;;;;;5018296;28;90212;-35
2022/03/24 04:16:13;;;;;;;72.45;51.05;;;3.40;99.90;;;;;;5020493;28;89240;-35
2022/03/24 04:18:44;;;;;;;74.18;56.80;;;3.30;99.90;;;;;;5021571;28;91085;-36
2022/03/24 04:21:10;;;;;;;70.25;58.17;;;3.40;99.90;;;;;;5021485;28;90055;-35
2022/03/24 04:23:37;;;;;;;76.03;57.40;;;3.50;99.90;;;;;;5021210;28;89520;-33
2022/03/24 04:26:04;;;;;;;75.85;57.47;;;3.50;99.90;;;;;;5021226;28;90237;-35
2022/03/24 04:28:30;;;;;;;73.75;55.67;;;3.50;99.90;;;;;;5020680;28;90177;-32
2022/03/24 04:30:55;;;;;;;68.00;55.78;;;3.60;99.90;;;;;;5021013;28;90707;-32
2022/03/24 04:33:21;;;;;;;76.47;59.88;;;3.60;99.90;;;;;;5020933;28;89423;-34
2022/03/24 04:35:47;;;;;;;84.03;65.05;;;3.60;99.90;;;;;;5021145;28;88959;-38
2022/03/24 04:38:14;;;;;;;83.68;64.38;;;3.60;99.90;;;;;;5021016;28;90720;-33
2022/03/24 04:40:40;;;;;;;86.57;66.72;;;3.70;99.90;;;;;;5020311;28;89673;-33
2022/03/24 04:43:06;;;;;;;81.07;61.70;;;3.70;99.90;;;;;;5021577;28;88838;-34
2022/03/24 04:45:33;;;;;;;82.43;66.30;;;3.70;99.90;;;;;;5020820;28;88021;-34
2022/03/24 04:48:00;;;;;;;81.88;63.17;;;3.60;99.90;;;;;;5002482;28;91123;-34
2022/03/24 04:50:26;;;;;;;84.43;61.90;;;3.50;99.90;;;;;;5020549;28;91057;-35
2022/03/24 04:52:52;;;;;;;87.72;68.55;;;3.50;99.90;;;;;;5021029;28;92349;-33
2022/03/24 04:55:18;;;;;;;80.75;63.13;;;3.50;99.90;;;;;;5020105;28;87664;-34
2022/03/24 04:57:44;;;;;;;82.20;65.50;;;3.40;99.90;;;;;;5020506;28;89051;-32
2022/03/24 05:00:11;;;;;;;83.07;63.08;;;3.40;99.90;;;;;;5020646;28;89437;-33
2022/03/24 05:02:38;;;;;;;87.60;67.10;;;3.30;99.90;;;;;;5001858;28;89970;-35
2022/03/24 05:05:04;;;;;;;79.75;62.85;;;3.40;99.90;;;;;;5021342;28;89473;-37
2022/03/24 05:07:29;;;;;;;87.38;66.15;;;3.40;99.90;;;;;;5021080;28;91982;-33
2022/03/24 05:09:55;;;;;;;85.07;66.03;;;3.40;99.90;;;;;;5019983;28;97300;-36
2022/03/24 05:12:21;;;;;;;91.85;66.38;;;3.40;99.90;;;;;;5020367;28;89438;-33
2022/03/24 05:14:46;;;;;;;83.18;63.20;;;3.40;99.90;;;;;;5019636;28;89580;-33
2022/03/24 05:17:12;;;;;;;76.43;61.90;;;3.40;99.90;;;;;;5020472;28;90583;-35
2022/03/24 05:19:39;;;;;;;81.82;66.03;;;3.40;99.90;;;;;;5020337;28;89901;-33
2022/03/24 05:22:05;;;;;;;88.35;67.18;;;3.40;99.90;;;;;;5019835;28;90040;-33
2022/03/24 05:24:31;;;;;;;84.65;64.72;;;3.30;99.90;;;;;;5020956;28;89717;-33
2022/03/24 05:26:57;;;;;;;77.47;64.03;;;3.30;99.90;;;;;;5019387;27;90519;-35
2022/03/24 05:29:23;;;;;;;73.97;60.47;;;3.30;99.90;;;;;;5021125;28;89825;-37
2022/03/24 05:31:48;;;;;;;70.15;59.28;;;3.30;99.90;;;;;;5019968;28;90869;-35
2022/03/24 05:34:14;;;;;;;79.18;63.47;;;3.30;99.90;;;;;;5020601;28;89137;-35
2022/03/24 05:36:40;;;;;;;85.57;65.18;;;3.20;99.90;;;;;;5019816;28;90823;-33
2022/03/24 05:39:05;;;;;;;81.15;65.03;;;3.20;99.90;;;;;;5019564;28;91011;-33
2022/03/24 05:41:31;;;;;;;73.95;59.75;;;3.10;99.90;;;;;;5020481;28;91159;-36
2022/03/24 05:44:03;;;;;;;74.30;61.47;;;3.10;99.90;;;;;;5019823;28;89344;-34
2022/03/24 05:46:34;;;;;;;75.97;61.80;;;3.10;99.90;;;;;;5020248;28;90791;-33
2022/03/24 05:49:01;;;;;;;81.00;63.30;;;3.10;99.90;;;;;;5020098;28;89598;-34
2022/03/24 05:51:27;;;;;;;83.22;63.50;;;3.10;99.90;;;;;;5000810;28;90996;-35
2022/03/24 05:53:53;;;;;;;82.45;67.68;;;3.20;99.90;;;;;;5020168;28;89482;-38
2022/03/24 05:56:19;;;;;;;89.07;68.90;;;3.20;99.90;;;;;;5020674;28;90209;-33
2022/03/24 05:58:45;;;;;;;89.05;64.55;;;3.30;99.90;;;;;;5018783;28;89624;-36
2022/03/24 06:01:13;;;;;;;87.03;66.22;;;3.30;99.90;;;;;;5020012;28;89573;-37
2022/03/24 06:03:39;;;;;;;89.18;63.15;;;3.30;99.90;;;;;;5019969;28;90141;-36
2022/03/24 06:06:06;;;;;;;72.82;60.80;;;3.30;99.90;;;;;;5019604;28;89770;-37
2022/03/24 06:08:33;;;;;;;82.25;65.63;;;3.30;99.90;;;;;;5019622;28;89592;-38
2022/03/24 06:11:00;;;;;;;89.70;64.75;;;3.40;99.90;;;;;;5019735;28;90298;-32
2022/03/24 06:13:26;;;;;;;74.07;60.90;;;3.30;99.90;;;;;;5001602;28;89244;-35
2022/03/24 06:15:51;;;;;;;115.53;69.15;;;3.40;99.90;;;;;;5018299;28;92892;-35
2022/03/24 06:18:18;;;;;;;82.80;66.30;;;3.40;99.90;;;;;;5020183;28;89904;-32
2022/03/24 06:20:43;;;;;;;89.55;70.93;;;3.50;99.90;;;;;;5019137;28;90284;-35
2022/03/24 06:23:09;;;;;;;82.20;67.72;;;3.50;99.90;;;;;;5019728;28;88477;-38
2022/03/24 06:25:37;;;;;;;91.28;66.03;;;3.60;99.90;;;;;;5018932;28;90247;-35
2022/03/24 06:28:04;;;;;;;89.77;69.23;;;3.70;99.90;;;;;;5018873;28;90781;-35
2022/03/24 06:30:30;;;;;;;88.78;67.57;;;3.70;99.90;;;;;;5019171;28;89175;-36
2022/03/24 06:32:56;;;;;;;93.45;73.55;;;3.80;99.90;;;;;;5019324;28;89300;-34
2022/03/24 06:35:22;;;;;;;93.75;73.07;;;3.90;99.90;;;;;;5018602;28;90259;-34
2022/03/24 06:37:50;;;;;;;99.78;74.60;;;4.00;99.90;;;;;;5018702;28;90573;-36
2022/03/24 06:40:16;;;;;;;98.95;80.13;;;4.10;99.90;;;;;;5019654;28;89656;-32
2022/03/24 06:42:42;;;;;;;100.35;78.55;;;4.20;99.90;;;;;;5018877;28;88305;-34
2022/03/24 06:45:10;;;;;;;92.55;74.63;;;4.40;99.90;;;;;;5019124;28;90532;-37
2022/03/24 06:47:37;;;;;;;110.47;77.53;;;4.50;99.90;;;;;;5017928;28;89622;-34
2022/03/24 06:50:03;;;;;;;99.97;82.43;;;4.60;99.90;;;;;;5018901;28;90651;-34
2022/03/24 06:52:29;;;;;;;103.80;79.20;;;4.80;99.90;;;;;;5018654;28;90221;-32
2022/03/24 06:54:55;;;;;;;108.07;81.75;;;5.00;99.90;;;;;;5018894;28;90216;-35
2022/03/24 06:57:21;;;;;;;107.30;79.95;;;5.50;99.90;;;;;;5018527;28;90530;-34
2022/03/24 06:59:47;;;;;;;109.25;79.93;;;5.70;99.90;;;;;;5018432;28;89893;-37
2022/03/24 07:02:13;;;;;;;107.80;83.55;;;5.70;99.90;;;;;;5019551;28;89337;-33
2022/03/24 07:04:38;;;;;;;103.68;78.75;;;5.70;99.90;;;;;;5018141;28;90098;-35
2022/03/24 07:07:05;;;;;;;110.53;80.90;;;5.70;99.90;;;;;;5020576;28;90074;-36
2022/03/24 07:09:31;;;;;;;107.55;80.75;;;5.80;99.90;;;;;;5019253;28;91198;-32
2022/03/24 07:11:57;;;;;;;97.57;81.90;;;6.00;99.90;;;;;;5018726;28;88622;-33
2022/03/24 07:14:23;;;;;;;96.63;80.22;;;6.20;99.90;;;;;;5018901;28;90465;-34
2022/03/24 07:16:49;;;;;;;98.60;80.80;;;6.40;99.90;;;;;;5017456;28;92393;-34
2022/03/24 07:19:14;;;;;;;104.28;83.18;;;6.60;99.90;;;;;;5019103;28;90570;-36
2022/03/24 07:21:40;;;;;;;96.90;77.57;;;6.90;99.90;;;;;;5018015;28;87925;-37
2022/03/24 07:24:06;;;;;;;100.40;77.22;;;7.10;99.90;;;;;;5018408;28;90313;-35
2022/03/24 07:26:32;;;;;;;99.50;78.90;;;7.20;99.90;;;;;;5017950;28;89795;-35
2022/03/24 07:28:58;;;;;;;102.90;78.50;;;7.50;99.90;;;;;;4970861;28;89765;-33
2022/03/24 07:31:24;;;;;;;92.40;72.55;;;7.70;99.90;;;;;;4997611;28;89465;-35
2022/03/24 07:33:51;;;;;;;93.35;71.72;;;7.80;99.90;;;;;;4998034;28;90254;-35
2022/03/24 07:36:22;;;;;;;92.10;70.57;;;7.90;99.90;;;;;;4997903;28;89802;-34
2022/03/24 07:38:52;;;;;;;90.10;67.35;;;8.00;99.90;;;;;;4997790;28;89486;-36
2022/03/24 07:41:18;;;;;;;86.10;65.88;;;8.20;99.90;;;;;;4997593;28;89360;-35
2022/03/24 07:43:44;;;;;;;78.03;65.47;;;8.30;99.90;;;;;;4998212;28;90165;-37
2022/03/24 07:46:09;;;;;;;93.15;69.32;;;8.40;99.90;;;;;;4998502;28;91107;-34
2022/03/24 07:48:35;;;;;;;76.82;56.85;;;8.40;99.90;;;;;;4998110;28;90312;-35
2022/03/24 07:51:01;;;;;;;85.32;68.88;;;8.60;99.90;;;;;;5002267;28;88325;-34
2022/03/24 07:53:34;;;;;;;84.43;65.38;;;8.70;99.90;;;;;;5001530;28;90264;-36
2022/03/24 07:56:00;;;;;;;84.95;62.95;;;8.80;99.90;;;;;;5002225;28;89864;-36
2022/03/24 07:58:26;;;;;;;90.45;62.78;;;9.00;99.90;;;;;;5001464;28;89347;-35
2022/03/24 08:00:51;;;;;;;88.97;61.05;;;9.10;99.90;;;;;;5001974;28;89637;-36
2022/03/24 08:03:19;;;;;;;79.53;59.08;;;9.50;99.90;;;;;;5001565;28;89617;-33
2022/03/24 08:05:46;;;;;;;76.33;61.87;;;9.60;99.90;;;;;;4999698;28;90546;-34
2022/03/24 08:08:13;;;;;;;70.28;56.75;;;9.60;99.90;;;;;;5000052;28;90355;-38
2022/03/24 08:10:40;;;;;;;78.35;57.47;;;9.70;99.90;;;;;;4999870;28;88171;-34
2022/03/24 08:13:06;;;;;;;79.05;56.85;;;10.00;99.90;;;;;;4999422;28;89417;-33
2022/03/24 08:15:34;;;;;;;74.38;57.45;;;10.20;99.90;;;;;;4999722;28;89878;-34
2022/03/24 08:17:59;;;;;;;69.10;57.65;;;10.20;99.90;;;;;;4999175;28;89577;-37
2022/03/24 08:20:25;;;;;;;81.07;59.75;;;10.30;99.90;;;;;;4999092;28;89268;-37
2022/03/24 08:22:52;;;;;;;74.47;55.17;;;10.30;99.90;;;;;;4999031;28;91174;-36
2022/03/24 08:25:18;;;;;;;67.47;52.85;;;10.40;99.90;;;;;;4999405;28;90153;-32
2022/03/24 08:27:44;;;;;;;68.47;53.75;;;10.60;99.90;;;;;;4999394;28;90396;-34
2022/03/24 08:30:10;;;;;;;65.57;53.47;;;10.90;99.90;;;;;;4998870;28;88333;-35
2022/03/24 08:32:35;;;;;;;73.85;55.03;;;10.80;99.90;;;;;;4998880;28;90616;-37
2022/03/24 08:35:02;;;;;;;71.75;54.03;;;11.10;99.90;;;;;;4998938;28;89650;-38
2022/03/24 08:37:28;;;;;;;70.65;51.58;;;11.20;99.90;;;;;;4999027;28;90363;-37
2022/03/24 08:39:53;;;;;;;64.78;50.80;;;11.40;99.90;;;;;;4998908;28;89841;-34
2022/03/24 08:42:19;;;;;;;71.30;52.72;;;11.50;99.90;;;;;;4999670;28;90784;-37
2022/03/24 08:44:45;;;;;;;64.05;49.90;;;11.70;99.90;;;;;;4999122;28;90543;-34
2022/03/24 08:47:11;;;;;;;69.72;48.45;;;11.90;99.90;;;;;;4997749;28;89343;-35
2022/03/24 08:49:36;;;;;;;61.58;49.22;;;12.20;99.90;;;;;;4998424;28;88371;-37
2022/03/24 08:52:03;;;;;;;65.47;46.28;;;12.30;99.90;;;;;;4998931;28;91212;-36
2022/03/24 08:54:28;;;;;;;57.53;41.38;;;12.40;99.90;;;;;;4998436;28;90985;-37
2022/03/24 08:56:54;;;;;;;54.90;43.63;;;12.20;99.90;;;;;;4998977;28;90461;-36
2022/03/24 08:59:20;;;;;;;63.15;43.00;;;12.40;99.90;;;;;;4998333;28;88596;-35
2022/03/24 09:01:45;;;;;;;58.22;42.10;;;12.80;99.90;;;;;;4997482;28;90487;-33
2022/03/24 09:04:11;;;;;;;53.50;43.53;;;13.00;99.90;;;;;;4998667;28;89694;-36
2022/03/24 09:06:37;;;;;;;61.13;45.35;;;13.10;99.90;;;;;;4998584;28;90187;-37
2022/03/24 09:09:04;;;;;;;59.97;43.10;;;13.30;99.90;;;;;;4998767;28;90026;-35
2022/03/24 09:11:30;;;;;;;52.60;43.15;;;13.20;99.90;;;;;;4997895;28;92480;-33
2022/03/24 09:13:56;;;;;;;56.00;42.08;;;13.30;96.70;;;;;;4998176;28;89652;-35
2022/03/24 09:16:21;;;;;;;48.67;37.10;;;13.50;98.80;;;;;;4997997;28;90147;-33
2022/03/24 09:18:47;;;;;;;50.83;39.33;;;13.60;92.10;;;;;;4997721;28;88217;-38
2022/03/24 09:21:13;;;;;;;53.63;41.05;;;13.90;92.70;;;;;;4998293;28;90090;-36
2022/03/24 09:23:39;;;;;;;57.83;38.88;;;13.70;80.30;;;;;;4998082;28;89777;-35
2022/03/24 09:26:05;;;;;;;56.10;45.17;;;13.90;94.40;;;;;;4998702;28;89952;-35
2022/03/24 09:28:31;;;;;;;59.30;41.78;;;14.00;95.00;;;;;;4980156;28;89861;-34
2022/03/24 09:30:57;;;;;;;54.45;39.38;;;14.40;95.50;;;;;;4998140;28;90079;-37
2022/03/24 09:33:24;;;;;;;50.78;39.10;;;14.70;90.30;;;;;;4997323;28;90451;-34
2022/03/24 09:35:50;;;;;;;53.35;38.60;;;14.90;82.20;;;;;;4997763;28;89604;-38
2022/03/24 09:38:16;;;;;;;51.90;39.95;;;15.00;73.80;;;;;;4998436;28;89750;-35
2022/03/24 09:40:43;;;;;;;51.45;39.45;;;14.70;69.70;;;;;;4997840;28;90209;-36
2022/03/24 09:43:08;;;;;;;48.25;38.45;;;14.80;71.00;;;;;;4997554;28;90020;-35
2022/03/24 09:45:34;;;;;;;53.85;36.20;;;14.70;66.30;;;;;;4997540;28;91500;-36
2022/03/24 09:48:00;;;;;;;51.00;35.25;;;14.60;67.00;;;;;;4998119;28;88395;-36
2022/03/24 09:50:28;;;;;;;45.13;35.00;;;14.80;68.20;;;;;;4997556;28;90227;-34
2022/03/24 09:52:54;;;;;;;55.67;38.17;;;14.90;67.80;;;;;;4997429;28;89868;-35
2022/03/24 09:55:20;;;;;;;51.03;36.47;;;15.30;67.20;;;;;;4997714;28;89838;-33
2022/03/24 09:57:48;;;;;;;47.05;35.67;;;15.40;66.80;;;;;;4997328;28;88710;-34
2022/03/24 10:00:15;;;;;;;;;;;15.30;63.30;;;;;;4997681;28;90058;-34
2022/03/24 10:02:40;;;;;;;47.60;36.45;;;15.40;63.80;;;;;;4999707;28;89865;-34
2022/03/24 10:05:08;;;;;;;48.65;34.35;;;15.20;61.90;;;;;;4997264;28;89644;-38
2022/03/24 10:07:54;;;;;;;46.85;36.33;;;15.30;61.60;;;;;;4997289;28;89476;-36
2022/03/24 10:10:25;;;;;;;48.75;36.47;;;15.70;64.80;;;;;;4996881;28;90930;-35
2022/03/24 10:12:50;;;;;;;46.75;35.65;;;15.40;63.60;;;;;;4996876;28;89640;-34
2022/03/24 10:15:17;;;;;;;54.65;38.50;;;15.80;63.10;;;;;;4996701;28;89918;-37
2022/03/24 10:17:52;;;;;;;51.35;38.13;;;15.40;64.20;;;;;;4997104;28;89383;-36
2022/03/24 10:20:20;;;;;;;46.35;35.08;;;15.80;65.50;;;;;;4997100;28;91024;-35
2022/03/24 10:22:57;;;;;;;138.00;44.33;;;15.60;61.50;;;;;;4996976;28;89657;-37
2022/03/24 10:25:36;;;;;;;51.27;37.00;;;15.90;64.10;;;;;;4997351;28;89113;-38
2022/03/24 10:28:11;;;;;;;56.47;35.10;;;16.00;62.40;;;;;;4997503;28;89419;-33
2022/03/24 10:30:50;;;;;;;48.00;35.72;;;16.00;59.70;;;;;;4996722;28;90506;-38
2022/03/24 10:33:36;;;;;;;46.45;31.88;;;16.10;58.60;;;;;;4995332;28;89278;-38
2022/03/24 10:36:15;;;;;;;47.42;32.30;;;16.20;59.20;;;;;;4996872;28;91935;-34
2022/03/24 10:38:47;;;;;;;47.40;33.20;;;16.40;58.30;;;;;;4996773;28;88435;-33
2022/03/24 10:41:36;;;;;;;44.58;32.90;;;16.00;57.60;;;;;;4997092;28;90239;-35
2022/03/24 10:44:10;;;;;;;35.58;30.98;;;16.50;58.30;;;;;;4997346;28;89760;-34
2022/03/24 10:46:41;;;;;;;43.83;31.83;;;16.40;53.40;;;;;;4996203;28;88700;-35
2022/03/24 10:49:18;;;;;;;42.88;32.97;;;16.60;55.20;;;;;;4996642;28;88552;-36
2022/03/24 10:51:46;;;;;;;47.75;34.15;;;16.80;55.90;;;;;;4996665;28;90813;-37
2022/03/24 10:54:41;;;;;;;47.28;33.92;;;16.70;55.80;;;;;;4997542;28;89731;-35
2022/03/24 10:57:20;;;;;;;38.17;31.70;;;17.10;60.20;;;;;;4996765;28;89252;-34
2022/03/24 10:59:48;;;;;;;45.15;29.88;;;17.20;53.30;;;;;;4996240;28;89469;-36
2022/03/24 11:02:15;;;;;;;37.03;27.92;;;17.00;52.40;;;;;;4996853;28;89140;-35
2022/03/24 11:04:41;;;;;;;39.63;30.58;;;17.20;52.60;;;;;;4996926;28;89757;-36
2022/03/24 11:07:07;;;;;;;34.63;28.80;;;17.60;55.30;;;;;;4996579;28;89833;-37
2022/03/24 11:09:34;;;;;;;43.47;32.30;;;17.80;52.10;;;;;;4996138;28;89003;-36
2022/03/24 11:12:25;;;;;;;35.72;28.70;;;17.90;52.60;;;;;;4996447;28;90417;-37
2022/03/24 11:14:54;;;;;;;41.97;28.88;;;17.40;46.40;;;;;;4996865;28;89894;-36
2022/03/24 11:17:23;;;;;;;42.67;30.77;;;17.70;50.10;;;;;;4995758;28;89804;-36
2022/03/24 11:20:08;;;;;;;40.20;28.10;;;17.70;52.40;;;;;;4996998;28;89557;-36
2022/03/24 11:22:48;;;;;;;40.35;26.58;;;17.50;50.90;;;;;;4996425;28;89328;-35
2022/03/24 11:25:15;;;;;;;30.45;25.33;;;17.90;50.90;;;;;;4995247;28;90620;-38
2022/03/24 11:27:41;;;;;;;36.20;28.48;;;17.70;49.60;;;;;;4996347;28;89320;-35
2022/03/24 11:30:09;;;;;;;35.80;26.48;;;17.90;51.50;;;;;;4996872;28;88732;-35
2022/03/24 11:32:37;;;;;;;33.28;25.77;;;17.80;46.80;;;;;;4995945;28;90441;-41
2022/03/24 11:35:07;;;;;;;33.08;25.13;;;17.70;47.70;;;;;;4996299;28;90196;-37
2022/03/24 11:37:34;;;;;;;32.25;25.23;;;17.60;46.00;;;;;;4996374;28;91425;-37
2022/03/24 11:40:13;;;;;;;34.58;23.65;;;17.90;49.80;;;;;;4996639;28;89661;-35
2022/03/24 11:43:11;;;;;;;36.95;25.33;;;18.20;49.00;;;;;;4996598;28;90298;-37
2022/03/24 11:45:49;;;;;;;34.83;26.67;;;18.10;46.20;;;;;;4988523;28;89645;-35
2022/03/24 11:48:15;;;;;;;33.47;25.33;;;17.80;47.30;;;;;;4996182;28;88916;-36
2022/03/24 11:50:41;;;;;;;33.88;24.85;;;17.90;47.20;;;;;;4995827;28;90113;-37
2022/03/24 11:53:36;;;;;;;31.70;24.27;;;17.70;45.70;;;;;;4996517;28;91884;-38
2022/03/24 11:56:02;;;;;;;33.10;24.92;;;17.80;47.40;;;;;;4996358;28;89561;-36
2022/03/24 11:58:30;;;;;;;33.60;24.25;;;18.00;47.10;;;;;;4995952;28;89832;-35
2022/03/24 12:00:56;;;;;;;;;;;18.00;44.50;;;;;;4996740;28;89691;-36
2022/03/24 12:03:44;;;;;;;29.98;23.60;;;17.90;43.30;;;;;;4998453;28;89664;-37
2022/03/24 12:06:13;;;;;;;35.72;24.15;;;18.10;44.30;;;;;;4996446;28;89746;-36
2022/03/24 12:09:06;;;;;;;26.45;21.92;;;18.30;44.00;;;;;;4996434;28;89117;-38
2022/03/24 12:11:31;;;;;;;31.85;23.70;;;18.20;43.40;;;;;;4994820;28;88721;-36
2022/03/24 12:13:59;;;;;;;39.45;21.33;;;18.20;41.80;;;;;;4995926;28;89371;-34
2022/03/24 12:16:26;;;;;;;35.90;23.42;;;18.20;44.80;;;;;;5032286;22;91568;-37
2022/03/24 12:18:52;;;;;;;31.65;21.23;;;18.20;43.10;;;;;;5015521;28;90519;-38
2022/03/24 12:21:24;;;;;;;34.25;22.95;;;18.10;41.80;;;;;;5015930;28;88623;-39
2022/03/24 12:24:02;;;;;;;32.58;21.10;;;18.10;41.80;;;;;;5015864;28;90214;-36
2022/03/24 12:26:29;;;;;;;30.00;21.75;;;18.10;41.50;;;;;;5016283;28;89555;-34
2022/03/24 12:29:11;;;;;;;29.40;22.85;;;18.10;41.80;;;;;;5015164;28;89691;-34
2022/03/24 12:32:06;;;;;;;32.42;23.20;;;18.20;44.60;;;;;;5015930;28;88498;-36
2022/03/24 12:34:46;;;;;;;32.17;20.35;;;18.10;44.50;;;;;;5015934;28;90201;-34
2022/03/24 12:37:26;;;;;;;23.83;20.83;;;18.10;44.20;;;;;;5018435;28;89435;-33